createdAt,value
2022-09-04T00:00:19.898Z,15.86
2022-09-04T00:03:14.247Z,15.99
2022-09-04T00:05:52.483Z,15.97
2022-09-04T00:08:41.141Z,16.03
2022-09-04T00:11:41.484Z,16.06
2022-09-04T00:14:35.917Z,15.90
2022-09-04T00:17:26.359Z,15.97
2022-09-04T00:20:27.634Z,15.87
2022-09-04T00:23:27.063Z,15.99
2022-09-04T00:26:32.335Z,16.01
2022-09-04T00:29:14.801Z,16.03
2022-09-04T00:31:54.351Z,16.01
2022-09-04T00:34:59.535Z,16.00
2022-09-04T00:37:35.095Z,16.02
2022-09-04T00:40:19.527Z,15.99
2022-09-04T00:43:02.745Z,15.97
2022-09-04T00:46:20.783Z,15.92
2022-09-04T00:49:21.454Z,15.92
2022-09-04T00:52:35.337Z,15.88
2022-09-04T00:56:03.360Z,15.84
2022-09-04T00:59:05.819Z,15.79
2022-09-04T01:01:33.203Z,15.72
2022-09-04T01:04:32.001Z,15.76
2022-09-04T01:07:23.993Z,15.73
2022-09-04T01:10:31.260Z,15.62
2022-09-04T01:13:18.930Z,15.83
2022-09-04T01:15:59.349Z,15.86
2022-09-04T01:18:53.166Z,15.69
2022-09-04T01:22:24.192Z,15.79
2022-09-04T01:25:50.627Z,15.89
2022-09-04T01:28:42.531Z,15.59
2022-09-04T01:31:12.591Z,15.93
2022-09-04T01:34:01.007Z,15.89
2022-09-04T01:36:47.843Z,15.87
2022-09-04T01:39:20.935Z,15.82
2022-09-04T01:42:06.951Z,15.86
2022-09-04T01:44:34.253Z,15.85
2022-09-04T01:47:04.460Z,15.68
2022-09-04T01:50:07.426Z,15.74
2022-09-04T01:52:59.039Z,15.76
2022-09-04T01:55:39.069Z,15.81
2022-09-04T01:58:37.770Z,15.84
2022-09-04T02:01:49.163Z,15.89
2022-09-04T02:04:31.136Z,15.88
2022-09-04T02:07:31.006Z,15.81
2022-09-04T02:10:49.152Z,15.72
2022-09-04T02:13:22.871Z,15.69
2022-09-04T02:16:26.500Z,15.74
2022-09-04T02:19:45.523Z,15.75
2022-09-04T02:22:44.595Z,15.77
2022-09-04T02:25:41.377Z,15.79
2022-09-04T02:28:51.593Z,15.52
2022-09-04T02:31:24.589Z,15.75
2022-09-04T02:34:06.975Z,15.42
2022-09-04T02:36:52.644Z,15.68
2022-09-04T02:39:44.155Z,15.72
2022-09-04T02:42:55.413Z,15.79
2022-09-04T02:45:28.085Z,15.81
2022-09-04T02:48:18.427Z,15.76
2022-09-04T02:51:13.994Z,15.84
2022-09-04T02:53:50.236Z,15.75
2022-09-04T02:56:58.646Z,15.82
2022-09-04T02:59:55.667Z,15.68
2022-09-04T03:02:35.317Z,15.68
2022-09-04T03:05:30.114Z,15.68
2022-09-04T03:08:51.597Z,15.70
2022-09-04T03:11:50.366Z,15.71
2022-09-04T03:14:53.034Z,15.70
2022-09-04T03:17:34.962Z,15.72
2022-09-04T03:20:23.345Z,15.73
2022-09-04T03:23:17.895Z,15.73
2022-09-04T03:25:51.006Z,15.65
2022-09-04T03:28:58.472Z,15.67
2022-09-04T03:32:15.512Z,15.29
2022-09-04T03:35:01.593Z,15.68
2022-09-04T03:37:52.638Z,15.66
2022-09-04T03:40:41.670Z,15.66
2022-09-04T03:43:11.653Z,15.68
2022-09-04T03:46:26.945Z,15.71
2022-09-04T03:49:36.204Z,15.70
2022-09-04T03:52:32.976Z,15.67
2022-09-04T03:55:20.913Z,15.68
2022-09-04T03:58:03.581Z,15.70
2022-09-04T04:01:24.716Z,15.69
2022-09-04T04:04:20.165Z,15.60
2022-09-04T04:07:07.780Z,15.62
2022-09-04T04:10:02.283Z,15.65
2022-09-04T04:12:56.862Z,15.62
2022-09-04T04:16:01.158Z,15.61
2022-09-04T04:18:43.549Z,15.60
2022-09-04T04:21:55.514Z,15.63
2022-09-04T04:25:05.566Z,15.57
2022-09-04T04:28:27.341Z,15.06
2022-09-04T04:31:15.306Z,15.54
2022-09-04T04:34:18.916Z,15.55
2022-09-04T04:37:07.516Z,15.63
2022-09-04T04:39:51.061Z,15.61
2022-09-04T04:42:34.286Z,15.60
2022-09-04T04:45:47.092Z,15.52
2022-09-04T04:48:45.469Z,15.53
2022-09-04T04:51:31.326Z,15.57
2022-09-04T04:54:23.893Z,15.62
2022-09-04T04:57:18.152Z,15.59
2022-09-04T05:00:22.831Z,15.62
2022-09-04T05:03:16.498Z,15.60
2022-09-04T05:06:03.339Z,15.60
2022-09-04T05:09:19.483Z,15.36
2022-09-04T05:12:25.278Z,15.51
2022-09-04T05:15:03.676Z,15.54
2022-09-04T05:17:58.494Z,15.49
2022-09-04T05:21:15.894Z,15.48
2022-09-04T05:23:59.176Z,15.54
2022-09-04T05:27:00.845Z,15.57
2022-09-04T05:30:05.055Z,15.63
2022-09-04T05:33:06.509Z,15.59
2022-09-04T05:36:25.683Z,15.61
2022-09-04T05:39:27.878Z,15.59
2022-09-04T05:42:07.063Z,15.56
2022-09-04T05:44:45.592Z,15.63
2022-09-04T05:47:38.957Z,15.68
2022-09-04T05:50:14.633Z,15.66
2022-09-04T05:52:58.516Z,15.70
2022-09-04T05:55:59.399Z,15.73
2022-09-04T05:58:53.830Z,15.90
2022-09-04T06:01:32.659Z,16.00
2022-09-04T06:04:38.340Z,16.01
2022-09-04T06:07:36.713Z,15.97
2022-09-04T06:10:50.638Z,16.06
2022-09-04T06:14:02.384Z,16.16
2022-09-04T06:17:21.565Z,16.19
2022-09-04T06:20:45.676Z,16.16
2022-09-04T06:23:43.385Z,16.16
2022-09-04T06:26:33.959Z,16.15
2022-09-04T06:29:35.763Z,16.18
2022-09-04T06:32:52.201Z,16.25
2022-09-04T06:35:47.112Z,16.30
2022-09-04T06:38:41.320Z,16.30
2022-09-04T06:41:25.517Z,16.30
2022-09-04T06:44:15.248Z,16.48
2022-09-04T06:47:16.083Z,16.55
2022-09-04T06:50:25.106Z,16.64
2022-09-04T06:53:30.152Z,16.73
2022-09-04T06:56:10.754Z,16.81
2022-09-04T06:59:24.934Z,16.88
2022-09-04T07:02:48.588Z,16.97
2022-09-04T07:05:55.560Z,16.60
2022-09-04T07:08:28.842Z,17.12
2022-09-04T07:10:58.881Z,17.22
2022-09-04T07:13:50.724Z,17.32
2022-09-04T07:16:33.070Z,17.26
2022-09-04T07:19:42.694Z,17.28
2022-09-04T07:22:45.046Z,17.03
2022-09-04T07:25:38.721Z,17.40
2022-09-04T07:28:44.495Z,17.55
2022-09-04T07:31:39.805Z,17.64
2022-09-04T07:34:24.788Z,17.77
2022-09-04T07:37:12.578Z,17.97
2022-09-04T07:40:16.305Z,18.26
2022-09-04T07:42:48.343Z,18.59
2022-09-04T07:45:48.722Z,18.81
2022-09-04T07:48:47.431Z,18.94
2022-09-04T07:51:22.783Z,19.06
2022-09-04T07:54:23.993Z,19.07
2022-09-04T07:57:18.194Z,19.26
2022-09-04T08:00:07.993Z,19.44
2022-09-04T08:03:22.862Z,19.38
2022-09-04T08:06:11.639Z,19.45
2022-09-04T08:08:56.311Z,19.67
2022-09-04T08:11:49.468Z,19.88
2022-09-04T08:14:26.686Z,19.98
2022-09-04T08:17:27.406Z,19.98
2022-09-04T08:20:26.280Z,20.14
2022-09-04T08:23:04.543Z,20.47
2022-09-04T08:26:12.111Z,20.77
2022-09-04T08:28:58.059Z,21.07
2022-09-04T08:31:37.081Z,21.48
2022-09-04T08:34:31.861Z,21.80
2022-09-04T08:37:52.871Z,21.93
2022-09-04T08:40:44.449Z,21.97
2022-09-04T08:43:34.776Z,22.03
2022-09-04T08:46:49.934Z,22.15
2022-09-04T08:50:03.524Z,22.51
2022-09-04T08:53:01.880Z,22.94
2022-09-04T08:56:06.432Z,23.93
2022-09-04T08:58:47.511Z,24.45
2022-09-04T09:01:38.745Z,25.01
2022-09-04T09:04:09.778Z,25.63
2022-09-04T09:06:59.972Z,26.33
2022-09-04T09:10:12.859Z,26.98
2022-09-04T09:13:12.820Z,27.05
2022-09-04T09:16:42.955Z,27.29
2022-09-04T09:19:37.580Z,27.79
2022-09-04T09:22:18.395Z,28.36
2022-09-04T09:25:07.218Z,28.50
2022-09-04T09:28:21.221Z,28.61
2022-09-04T09:31:13.426Z,29.11
2022-09-04T09:34:11.283Z,28.90
2022-09-04T09:37:25.309Z,29.23
2022-09-04T09:40:16.112Z,29.12
2022-09-04T09:43:43.249Z,29.67
2022-09-04T09:46:24.873Z,30.06
2022-09-04T09:48:57.844Z,30.02
2022-09-04T09:52:01.256Z,30.02
2022-09-04T09:55:23.675Z,29.36
2022-09-04T09:58:31.470Z,30.35
2022-09-04T10:01:36.373Z,31.10
2022-09-04T10:04:21.590Z,31.44
2022-09-04T10:07:42.870Z,31.47
2022-09-04T10:10:28.357Z,31.48
2022-09-04T10:13:29.536Z,31.97
2022-09-04T10:16:36.600Z,31.57
2022-09-04T10:19:18.592Z,31.23
2022-09-04T10:22:31.056Z,31.37
2022-09-04T10:25:23.911Z,31.77
2022-09-04T10:28:33.155Z,31.89
2022-09-04T10:31:31.723Z,32.37
2022-09-04T10:34:24.028Z,32.44
2022-09-04T10:37:25.338Z,32.07
2022-09-04T10:40:23.871Z,32.55
2022-09-04T10:43:18.662Z,32.38
2022-09-04T10:46:13.768Z,32.21
2022-09-04T10:49:15.502Z,32.87
2022-09-04T10:51:49.720Z,33.24
2022-09-04T10:54:50.888Z,32.43
2022-09-04T10:57:27.696Z,32.64
2022-09-04T11:00:16.539Z,32.79
2022-09-04T11:03:11.348Z,33.24
2022-09-04T11:06:15.722Z,33.87
2022-09-04T11:09:14.268Z,33.35
2022-09-04T11:12:30.224Z,32.42
2022-09-04T11:15:15.446Z,31.24
2022-09-04T11:17:57.549Z,29.04
2022-09-04T11:21:24.085Z,28.16
2022-09-04T11:24:38.057Z,27.96
2022-09-04T11:27:52.703Z,26.86
2022-09-04T11:30:48.582Z,25.78
2022-09-04T11:33:23.062Z,25.39
2022-09-04T11:36:20.898Z,25.23
2022-09-04T11:39:03.402Z,25.17
2022-09-04T11:42:08.367Z,25.29
2022-09-04T11:45:16.954Z,25.30
2022-09-04T11:48:02.001Z,25.61
2022-09-04T11:51:05.441Z,25.91
2022-09-04T11:54:24.051Z,26.22
2022-09-04T11:57:01.397Z,26.52
2022-09-04T11:59:54.781Z,26.62
2022-09-04T12:03:09.715Z,26.72
2022-09-04T12:06:00.928Z,26.62
2022-09-04T12:09:09.733Z,26.37
2022-09-04T12:12:18.737Z,26.30
2022-09-04T12:15:34.383Z,26.39
2022-09-04T12:18:44.982Z,26.10
2022-09-04T12:21:51.422Z,25.90
2022-09-04T12:24:51.747Z,25.87
2022-09-04T12:28:03.830Z,26.00
2022-09-04T12:30:53.355Z,26.32
2022-09-04T12:33:36.771Z,26.69
2022-09-04T12:36:15.493Z,26.87
2022-09-04T12:39:19.577Z,27.13
2022-09-04T12:42:05.653Z,27.02
2022-09-04T12:44:53.727Z,26.94
2022-09-04T12:47:45.894Z,26.97
2022-09-04T12:50:40.126Z,27.02
2022-09-04T12:53:44.987Z,26.83
2022-09-04T12:56:27.134Z,26.79
2022-09-04T12:59:19.628Z,26.67
2022-09-04T13:01:59.613Z,26.70
2022-09-04T13:05:23.354Z,26.56
2022-09-04T13:08:07.395Z,26.29
2022-09-04T13:11:22.370Z,25.98
2022-09-04T13:14:24.662Z,25.67
2022-09-04T13:17:43.468Z,25.62
2022-09-04T13:20:13.419Z,25.65
2022-09-04T13:22:57.816Z,25.74
2022-09-04T13:26:07.826Z,25.70
2022-09-04T13:28:47.878Z,25.86
2022-09-04T13:31:18.487Z,25.96
2022-09-04T13:34:24.382Z,26.00
2022-09-04T13:37:08.174Z,25.88
2022-09-04T13:39:54.490Z,25.78
2022-09-04T13:43:05.376Z,25.75
2022-09-04T13:45:45.536Z,25.71
2022-09-04T13:48:33.719Z,25.85
2022-09-04T13:51:13.496Z,25.84
2022-09-04T13:54:27.053Z,25.77
2022-09-04T13:57:18.122Z,25.76
2022-09-04T13:59:50.125Z,25.78
2022-09-04T14:02:25.468Z,25.82
2022-09-04T14:05:13.526Z,25.80
2022-09-04T14:07:47.541Z,25.88
2022-09-04T14:10:31.548Z,25.88
2022-09-04T14:13:52.513Z,25.87
2022-09-04T14:16:23.750Z,25.69
2022-09-04T14:19:16.203Z,25.82
2022-09-04T14:22:03.692Z,25.81
2022-09-04T14:24:57.521Z,25.89
2022-09-04T14:27:51.768Z,25.79
2022-09-04T14:30:22.991Z,25.70
2022-09-04T14:33:36.105Z,25.72
2022-09-04T14:36:56.321Z,25.77
2022-09-04T14:40:02.456Z,25.74
2022-09-04T14:43:12.830Z,25.80
2022-09-04T14:46:10.027Z,25.69
2022-09-04T14:48:44.524Z,25.57
2022-09-04T14:51:30.853Z,25.58
2022-09-04T14:54:01.949Z,25.69
2022-09-04T14:56:52.930Z,25.76
2022-09-04T14:59:41.382Z,25.42
2022-09-04T15:02:14.322Z,25.51
2022-09-04T15:04:53.072Z,25.58
2022-09-04T15:07:52.410Z,25.47
2022-09-04T15:10:35.244Z,25.53
2022-09-04T15:13:20.994Z,25.23
2022-09-04T15:15:59.457Z,25.45
2022-09-04T15:18:55.406Z,25.43
2022-09-04T15:22:10.687Z,25.46
2022-09-04T15:25:01.165Z,25.42
2022-09-04T15:28:00.047Z,25.30
2022-09-04T15:30:45.505Z,25.30
2022-09-04T15:33:19.944Z,25.42
2022-09-04T15:36:08.609Z,25.40
2022-09-04T15:38:37.436Z,25.46
2022-09-04T15:41:34.135Z,25.59
2022-09-04T15:44:30.275Z,25.44
2022-09-04T15:47:23.310Z,25.32
2022-09-04T15:50:02.110Z,25.16
2022-09-04T15:52:46.518Z,25.08
2022-09-04T15:55:49.891Z,25.04
2022-09-04T15:58:53.117Z,24.76
2022-09-04T16:01:40.106Z,24.64
2022-09-04T16:04:27.400Z,24.76
2022-09-04T16:07:03.692Z,24.71
2022-09-04T16:10:01.816Z,24.69
2022-09-04T16:12:51.049Z,24.58
2022-09-04T16:15:40.999Z,24.57
2022-09-04T16:18:21.159Z,24.40
2022-09-04T16:20:59.059Z,24.46
2022-09-04T16:23:40.411Z,24.30
2022-09-04T16:26:32.995Z,24.29
2022-09-04T16:29:36.589Z,24.25
2022-09-04T16:32:12.330Z,24.19
2022-09-04T16:34:55.267Z,24.05
2022-09-04T16:37:42.775Z,24.14
2022-09-04T16:41:06.022Z,24.11
2022-09-04T16:43:35.324Z,24.09
2022-09-04T16:46:27.435Z,24.09
2022-09-04T16:49:03.492Z,24.02
2022-09-04T16:51:42.788Z,23.97
2022-09-04T16:54:49.163Z,23.90
2022-09-04T16:57:21.600Z,23.83
2022-09-04T16:59:54.481Z,23.77
2022-09-04T17:02:53.156Z,23.72
2022-09-04T17:05:35.701Z,23.66
2022-09-04T17:08:21.315Z,23.63
2022-09-04T17:11:04.472Z,23.59
2022-09-04T17:13:56.775Z,23.54
2022-09-04T17:16:48.400Z,23.42
2022-09-04T17:19:16.011Z,23.40
2022-09-04T17:28:56.531Z,23.36
2022-09-04T17:29:18.570Z,23.36
2022-09-04T17:29:34.673Z,23.24
2022-09-04T17:38:40.056Z,23.19
2022-09-04T17:40:41.554Z,23.12
2022-09-04T17:40:52.538Z,23.11
2022-09-04T17:42:26.073Z,22.97
2022-09-04T17:45:25.236Z,22.94
2022-09-04T17:48:26.761Z,22.84
2022-09-04T17:51:04.607Z,22.75
2022-09-04T17:53:38.331Z,22.71
2022-09-04T17:56:20.544Z,22.53
2022-09-04T17:58:59.539Z,22.56
2022-09-04T18:01:51.252Z,22.48
2022-09-04T18:04:27.310Z,22.40
2022-09-04T18:07:33.619Z,22.30
2022-09-04T18:10:09.725Z,22.20
2022-09-04T18:12:51.832Z,22.06
2022-09-04T18:15:34.923Z,21.95
2022-09-04T18:18:12.597Z,21.88
2022-09-04T18:20:58.151Z,21.79
2022-09-04T18:23:48.774Z,21.76
2022-09-04T18:26:40.737Z,21.70
2022-09-04T18:29:26.413Z,21.68
2022-09-04T18:37:11.416Z,21.58
2022-09-04T18:37:24.421Z,21.51
2022-09-04T18:38:41.747Z,21.47
2022-09-04T18:47:22.223Z,21.39
2022-09-04T18:50:41.034Z,21.38
2022-09-04T18:50:52.512Z,21.33
2022-09-04T18:51:04.382Z,21.27
2022-09-04T18:53:37.417Z,21.12
2022-09-04T18:56:26.488Z,21.11
2022-09-04T18:59:02.211Z,21.05
2022-09-04T19:01:50.904Z,20.99
2022-09-04T19:04:37.275Z,20.91
2022-09-04T19:07:41.397Z,20.99
2022-09-04T19:10:12.304Z,21.09
2022-09-04T19:12:49.638Z,21.12
2022-09-04T19:15:55.914Z,21.15
2022-09-04T19:18:30.657Z,21.16
2022-09-04T19:21:14.492Z,21.09
2022-09-04T19:23:53.049Z,20.99
2022-09-04T19:26:45.056Z,20.95
2022-09-04T19:29:34.610Z,20.88
2022-09-04T19:32:43.734Z,20.81
2022-09-04T19:35:19.586Z,20.79
2022-09-04T19:42:02.944Z,20.75
2022-09-04T19:46:03.965Z,20.67
2022-09-04T19:46:16.208Z,20.73
2022-09-04T19:47:52.411Z,20.68
2022-09-04T19:53:23.059Z,20.65
2022-09-04T19:53:42.667Z,20.62
2022-09-04T19:56:23.234Z,20.59
2022-09-04T19:59:00.850Z,20.49
2022-09-04T20:01:52.084Z,20.13
2022-09-04T20:04:43.004Z,20.36
2022-09-04T20:07:41.528Z,20.40
2022-09-04T20:10:45.382Z,20.32
2022-09-04T20:13:33.712Z,20.22
2022-09-04T20:16:12.870Z,20.19
2022-09-04T20:18:48.599Z,20.18
2022-09-04T20:21:26.072Z,20.12
2022-09-04T20:24:10.965Z,20.08
2022-09-04T20:27:10.292Z,20.03
2022-09-04T20:29:56.050Z,19.98
2022-09-04T20:33:03.468Z,19.92
2022-09-04T20:35:44.748Z,19.76
2022-09-04T20:38:32.948Z,19.67
2022-09-04T20:41:46.277Z,19.57
2022-09-04T20:44:23.329Z,19.47
2022-09-04T20:52:44.255Z,19.44
2022-09-04T20:53:00.201Z,19.64
2022-09-04T20:53:52.686Z,19.71
2022-09-04T20:57:08.949Z,19.69
2022-09-04T21:03:07.290Z,19.61
2022-09-04T21:03:18.526Z,19.56
2022-09-04T21:06:06.744Z,19.51
2022-09-04T21:09:12.505Z,19.47
2022-09-04T21:11:50.258Z,19.44
2022-09-04T21:14:44.715Z,19.45
2022-09-04T21:17:44.652Z,19.42
2022-09-04T21:20:35.627Z,19.37
2022-09-04T21:23:24.469Z,19.27
2022-09-04T21:26:16.333Z,19.22
2022-09-04T21:29:13.800Z,19.21
2022-09-04T21:32:20.944Z,19.15
2022-09-04T21:35:15.780Z,19.12
2022-09-04T21:38:05.777Z,18.90
2022-09-04T21:40:53.869Z,19.03
2022-09-04T21:43:36.430Z,18.98
2022-09-04T21:46:36.703Z,18.93
2022-09-04T21:49:26.630Z,18.77
2022-09-04T21:51:57.657Z,18.67
2022-09-04T21:57:02.761Z,18.65
2022-09-04T22:02:26.632Z,18.66
2022-09-04T22:02:40.618Z,18.52
2022-09-04T22:04:35.270Z,18.44
2022-09-04T22:12:18.226Z,18.37
2022-09-04T22:13:41.988Z,18.32
2022-09-04T22:13:49.327Z,18.28
2022-09-04T22:16:29.355Z,18.29
2022-09-04T22:18:57.028Z,18.32
2022-09-04T22:21:38.801Z,18.30
2022-09-04T22:24:53.584Z,18.26
2022-09-04T22:28:08.294Z,18.21
2022-09-04T22:30:55.274Z,18.09
2022-09-04T22:34:14.242Z,17.97
2022-09-04T22:37:14.117Z,17.95
2022-09-04T22:40:03.047Z,17.85
2022-09-04T22:43:00.992Z,17.79
2022-09-04T22:45:46.693Z,17.72
2022-09-04T22:48:37.404Z,17.71
2022-09-04T22:51:27.381Z,17.63
2022-09-04T22:54:18.869Z,17.67
2022-09-04T22:57:44.755Z,17.66
2022-09-04T23:00:17.731Z,17.62
2022-09-04T23:03:35.375Z,17.47
2022-09-04T23:08:27.705Z,17.37
2022-09-04T23:13:48.166Z,17.38
2022-09-04T23:13:48.350Z,17.35
2022-09-04T23:16:28.392Z,17.31
2022-09-04T23:24:53.507Z,16.89
2022-09-04T23:26:46.248Z,17.23
2022-09-04T23:26:50.181Z,17.21
2022-09-04T23:29:04.457Z,17.16
2022-09-04T23:32:27.975Z,17.11
2022-09-04T23:35:41.356Z,17.04
2022-09-04T23:38:20.720Z,17.11
2022-09-04T23:40:58.406Z,17.11
2022-09-04T23:44:25.502Z,17.07
2022-09-04T23:47:08.072Z,16.95
2022-09-04T23:49:56.046Z,16.84
2022-09-04T23:52:59.773Z,16.77
2022-09-04T23:55:49.411Z,16.82
2022-09-04T23:59:06.218Z,16.79
